Time;durP1;ratioP1;P1;durP2;ratioP2;P2;SDS_P1;SDS_P2;PMS_P1;PMS_P2;Temp;Humidity;BMP_temperature;BMP_pressure;BME280_temperature;BME280_humidity;BME280_pressure;Samples;Min_cycle;Max_cycle;Signal;HPM_P1;HPM_P2
2021/07/13 00:00:40;;;;;;;;;;;;;;;23.52;53.17;100802.23;448495;115;923760;-70
2021/07/13 00:01:44;;;;;;;;;;;;;;;23.53;53.02;100791.94;449300;115;923142;-70
2021/07/13 00:02:53;;;;;;;;;;;;;;;23.52;52.92;100796.67;450487;114;922692;-69
2021/07/13 00:03:54;;;;;;;;;;;;;;;23.52;52.85;100798.63;450463;114;923100;-70
2021/07/13 00:04:58;;;;;;;;;;;;;;;23.53;52.74;100809.47;452064;114;921672;-70
2021/07/13 00:06:01;;;;;;;;;;;;;;;23.54;52.63;100810.30;451597;114;922655;-71
2021/07/13 00:07:04;;;;;;;;;;;;;;;23.53;52.57;100801.12;449774;117;921536;-71
2021/07/13 00:08:08;;;;;;;;;;;;;;;23.53;52.45;100801.12;451262;114;921674;-71
2021/07/13 00:09:12;;;;;;;;;;;;;;;23.52;52.49;100795.84;450228;114;923101;-69
2021/07/13 00:10:17;;;;;;;;;;;;;;;23.50;52.65;100807.27;449815;115;921555;-71
2021/07/13 00:11:21;;;;;;;;;;;;;;;23.49;52.72;100802.81;447876;115;922661;-68
2021/07/13 00:12:25;;;;;;;;;;;;;;;23.48;52.84;100806.75;449430;115;922666;-70
2021/07/13 00:13:29;;;;;;;;;;;;;;;23.47;52.92;100793.95;448581;115;922641;-71
2021/07/13 00:14:32;;;;;;;;;;;;;;;23.46;53.00;100797.02;449864;115;921659;-71
2021/07/13 00:15:42;;;;;;;;;;;;;;;23.45;53.05;100790.59;449107;115;922750;-66
2021/07/13 00:16:50;;;;;;;;;;;;;;;23.44;53.23;100799.22;449608;115;922657;-65
2021/07/13 00:17:54;;;;;;;;;;;;;;;23.42;53.39;100801.49;450657;115;922474;-66
2021/07/13 00:18:57;;;;;;;;;;;;;;;23.40;53.52;100793.43;449820;115;924317;-66
2021/07/13 00:20:01;;;;;;;;;;;;;;;23.39;53.73;100793.72;449405;115;922594;-67
2021/07/13 00:21:06;;;;;;;;;;;;;;;23.36;53.87;100791.53;450642;115;922489;-66
2021/07/13 00:22:09;;;;;;;;;;;;;;;23.35;54.17;100792.66;450582;115;922696;-67
2021/07/13 00:23:13;;;;;;;;;;;;;;;23.32;54.48;100794.09;440091;118;923453;-65
2021/07/13 00:24:16;;;;;;;;;;;;;;;23.31;54.83;100786.03;454397;114;922706;-65
2021/07/13 00:25:19;;;;;;;;;;;;;;;23.31;55.32;100791.59;455478;114;922665;-65
2021/07/13 00:26:24;;;;;;;;;;;;;;;23.30;55.75;100790.77;453132;116;923079;-65
2021/07/13 00:27:27;;;;;;;;;;;;;;;23.28;56.02;100790.22;455046;114;922557;-64
2021/07/13 00:28:31;;;;;;;;;;;;;;;23.26;56.25;100792.48;453655;114;922736;-65
2021/07/13 00:29:34;;;;;;;;;;;;;;;23.25;56.20;100799.16;453324;114;921982;-65
2021/07/13 00:30:38;;;;;;;;;;;;;;;23.21;56.28;100798.09;453738;114;921522;-65
2021/07/13 00:31:41;;;;;;;;;;;;;;;23.18;56.39;100790.32;453867;114;921519;-65
2021/07/13 00:32:44;;;;;;;;;;;;;;;23.15;56.38;100790.92;453233;114;921961;-65
2021/07/13 00:33:47;;;;;;;;;;;;;;;23.11;56.52;100792.61;450092;114;921487;-65
2021/07/13 00:34:51;;;;;;;;;;;;;;;23.08;56.53;100790.42;449990;115;921634;-66
2021/07/13 00:35:54;;;;;;;;;;;;;;;23.02;56.58;100788.81;448849;115;921410;-66
2021/07/13 00:36:57;;;;;;;;;;;;;;;22.97;56.58;100797.20;447758;115;921601;-66
2021/07/13 00:38:01;;;;;;;;;;;;;;;22.91;56.74;100788.08;452670;113;921694;-65
2021/07/13 00:39:04;;;;;;;;;;;;;;;22.85;56.86;100790.07;453179;114;922648;-64
2021/07/13 00:40:09;;;;;;;;;;;;;;;22.82;56.83;100792.62;453485;114;922785;-64
2021/07/13 00:41:12;;;;;;;;;;;;;;;22.77;56.80;100787.91;451491;114;923376;-65
2021/07/13 00:42:16;;;;;;;;;;;;;;;22.74;56.81;100794.06;450432;115;924153;-65
2021/07/13 00:43:19;;;;;;;;;;;;;;;22.72;56.69;100789.89;449839;115;923255;-65
2021/07/13 00:44:23;;;;;;;;;;;;;;;22.69;56.60;100788.52;450749;115;922609;-64
2021/07/13 00:45:27;;;;;;;;;;;;;;;22.67;56.54;100787.96;447965;115;922709;-65
2021/07/13 00:46:30;;;;;;;;;;;;;;;22.66;56.46;100791.86;450657;115;922586;-64
2021/07/13 00:47:33;;;;;;;;;;;;;;;22.64;56.44;100790.50;449239;115;922625;-64
2021/07/13 00:48:37;;;;;;;;;;;;;;;22.62;56.43;100788.00;451953;115;922750;-64
2021/07/13 00:49:44;;;;;;;;;;;;;;;22.60;56.39;100790.27;449939;115;922679;-65
2021/07/13 00:50:45;;;;;;;;;;;;;;;22.58;56.26;100784.15;453427;114;922659;-66
2021/07/13 00:51:49;;;;;;;;;;;;;;;22.54;56.22;100777.52;453078;114;923031;-65
2021/07/13 00:52:53;;;;;;;;;;;;;;;22.52;56.15;100790.86;451501;114;923121;-66
2021/07/13 00:53:56;;;;;;;;;;;;;;;22.50;56.20;100789.48;451354;114;922725;-65
2021/07/13 00:55:01;;;;;;;;;;;;;;;22.49;56.25;100788.67;452628;114;921628;-65
2021/07/13 00:56:04;;;;;;;;;;;;;;;22.49;56.28;100797.02;451865;114;923131;-65
2021/07/13 00:57:08;;;;;;;;;;;;;;;22.50;56.31;100784.75;452992;114;922663;-65
2021/07/13 00:58:12;;;;;;;;;;;;;;;22.52;56.31;100787.25;449050;114;922544;-64
2021/07/13 00:59:15;;;;;;;;;;;;;;;22.55;56.29;100786.69;449580;116;922702;-65
2021/07/13 01:00:21;;;;;;;;;;;;;;;22.59;56.18;100782.20;449720;116;922713;-67
2021/07/13 01:01:24;;;;;;;;;;;;;;;22.61;56.15;100791.89;447765;116;922589;-66
2021/07/13 01:02:28;;;;;;;;;;;;;;;22.64;56.19;100796.06;448466;115;922687;-65
2021/07/13 01:03:32;;;;;;;;;;;;;;;22.65;56.23;100787.44;445212;116;922741;-65
2021/07/13 01:04:37;;;;;;;;;;;;;;;22.67;56.24;100790.73;456449;113;923196;-65
2021/07/13 01:05:41;;;;;;;;;;;;;;;22.68;56.28;100786.02;456683;113;923569;-64
2021/07/13 01:06:56;;;;;;;;;;;;;;;22.68;56.33;100783.23;458313;113;922663;-67
2021/07/13 01:08:01;;;;;;;;;;;;;;;22.67;56.38;100787.96;449040;115;922794;-64
2021/07/13 01:09:06;;;;;;;;;;;;;;;22.67;56.36;100782.40;450134;114;922674;-65
2021/07/13 01:10:11;;;;;;;;;;;;;;;22.67;56.35;100787.96;451347;114;922694;-66
2021/07/13 01:11:28;;;;;;;;;;;;;;;22.67;56.34;100782.40;450003;115;923597;-65
2021/07/13 01:12:45;;;;;;;;;;;;;;;22.66;56.25;100782.72;450198;115;922707;-64
2021/07/13 01:14:09;;;;;;;;;;;;;;;22.63;56.24;100781.33;450466;116;922860;-65
2021/07/13 01:15:14;;;;;;;;;;;;;;;22.61;56.24;100786.34;449403;116;922740;-64
2021/07/13 01:16:19;;;;;;;;;;;;;;;22.60;56.24;100790.27;451476;114;922730;-65
2021/07/13 01:17:24;;;;;;;;;;;;;;;22.59;56.27;100784.98;448996;115;922651;-65
2021/07/13 01:18:29;;;;;;;;;;;;;;;22.56;56.22;100788.33;449443;117;921532;-65
2021/07/13 01:19:34;;;;;;;;;;;;;;;22.53;56.20;100792.53;449576;115;921477;-65
2021/07/13 01:20:51;;;;;;;;;;;;;;;22.51;56.13;100782.80;448632;117;921974;-66
2021/07/13 01:21:56;;;;;;;;;;;;;;;22.52;56.03;100785.30;449701;115;921524;-65
2021/07/13 01:23:01;;;;;;;;;;;;;;;22.51;55.80;100785.59;450398;115;921558;-65
2021/07/13 01:24:12;;;;;;;;;;;;;;;22.50;55.74;100787.53;451661;114;921541;-66
2021/07/13 01:25:17;;;;;;;;;;;;;;;22.51;55.64;100782.80;453246;114;921702;-66
2021/07/13 01:26:40;;;;;;;;;;;;;;;22.50;55.60;100789.48;454165;114;921591;-65
2021/07/13 01:27:47;;;;;;;;;;;;;;;22.50;55.56;100787.53;458034;114;921504;-66
2021/07/13 01:28:52;;;;;;;;;;;;;;;22.51;55.46;100791.14;453992;114;921428;-65
2021/07/13 01:29:56;;;;;;;;;;;;;;;22.49;55.38;100788.67;451447;114;921499;-65
2021/07/13 01:31:01;;;;;;;;;;;;;;;22.49;55.35;100785.89;450364;114;921545;-67
2021/07/13 01:32:05;;;;;;;;;;;;;;;22.49;55.35;100783.12;450214;114;921530;-65
2021/07/13 01:33:10;;;;;;;;;;;;;;;22.49;55.38;100787.84;449265;115;921420;-65
2021/07/13 01:34:15;;;;;;;;;;;;;;;22.48;55.37;100781.45;447685;115;922581;-67
2021/07/13 01:35:20;;;;;;;;;;;;;;;22.47;55.38;100788.12;450855;115;922781;-64
2021/07/13 01:36:25;;;;;;;;;;;;;;;22.44;55.40;100788.68;450696;116;921424;-65
2021/07/13 01:37:30;;;;;;;;;;;;;;;22.40;55.40;100791.22;451461;114;922583;-65
2021/07/13 01:38:35;;;;;;;;;;;;;;;22.37;55.49;100793.75;449358;115;923106;-65
2021/07/13 01:39:39;;;;;;;;;;;;;;;22.34;55.58;100791.53;451806;114;922709;-65
2021/07/13 01:40:44;;;;;;;;;;;;;;;22.31;55.63;100800.45;449995;115;922683;-64
2021/07/13 01:41:49;;;;;;;;;;;;;;;22.28;55.67;100798.23;448775;115;922702;-64
2021/07/13 01:42:55;;;;;;;;;;;;;;;22.26;55.77;100800.48;449343;115;922657;-65
2021/07/13 01:43:58;;;;;;;;;;;;;;;22.26;55.57;100797.71;449858;115;922738;-65
2021/07/13 01:45:02;;;;;;;;;;;;;;;22.26;55.52;100801.33;451704;114;922556;-64
2021/07/13 01:46:07;;;;;;;;;;;;;;;22.28;55.43;100806.57;447782;117;922736;-65
2021/07/13 01:47:12;;;;;;;;;;;;;;;22.28;55.41;100799.07;450735;114;922634;-66
2021/07/13 01:48:17;;;;;;;;;;;;;;;22.29;55.43;100806.30;451727;115;922684;-65
2021/07/13 01:49:25;;;;;;;;;;;;;;;22.30;55.48;100794.06;451449;114;922681;-66
2021/07/13 01:50:30;;;;;;;;;;;;;;;22.30;55.51;100801.57;451902;113;922563;-65
2021/07/13 01:51:34;;;;;;;;;;;;;;;22.32;55.52;100805.73;449889;115;923152;-64
2021/07/13 01:52:38;;;;;;;;;;;;;;;22.31;55.52;100804.07;449584;115;922718;-66
2021/07/13 01:53:42;;;;;;;;;;;;;;;22.30;55.58;100804.34;450742;115;924283;-65
2021/07/13 01:54:46;;;;;;;;;;;;;;;22.28;55.65;100806.57;450835;115;922637;-65
2021/07/13 01:55:50;;;;;;;;;;;;;;;22.27;55.75;100800.21;449130;115;922703;-64
2021/07/13 01:56:54;;;;;;;;;;;;;;;22.27;55.80;100810.49;449147;116;923583;-66
2021/07/13 01:57:59;;;;;;;;;;;;;;;22.28;55.82;100799.07;449743;115;922695;-63
2021/07/13 01:59:04;;;;;;;;;;;;;;;22.28;55.90;100810.18;448111;114;924263;-64
2021/07/13 02:00:09;;;;;;;;;;;;;;;22.27;55.93;100805.77;447383;115;921658;-70
2021/07/13 02:01:19;;;;;;;;;;;;;;;22.27;55.94;100811.33;448766;116;922703;-65
2021/07/13 02:02:23;;;;;;;;;;;;;;;22.28;55.93;100809.34;450180;116;922664;-65
2021/07/13 02:03:28;;;;;;;;;;;;;;;22.27;55.97;100807.72;448314;114;921513;-65
2021/07/13 02:04:32;;;;;;;;;;;;;;;22.26;55.90;100806.87;449346;115;922548;-65
2021/07/13 02:05:36;;;;;;;;;;;;;;;22.25;55.83;100805.22;448753;114;922707;-66
2021/07/13 02:06:41;;;;;;;;;;;;;;;22.25;55.72;100809.94;448296;116;921612;-65
2021/07/13 02:07:49;;;;;;;;;;;;;;;22.23;55.60;100807.44;448707;116;921381;-64
2021/07/13 02:08:51;;;;;;;;;;;;;;;22.21;55.71;100803.30;447379;115;921523;-65
2021/07/13 02:09:56;;;;;;;;;;;;;;;22.21;55.72;100803.30;449611;116;921410;-64
2021/07/13 02:10:59;;;;;;;;;;;;;;;22.20;55.65;100808.02;450314;115;921441;-65
2021/07/13 02:12:03;;;;;;;;;;;;;;;22.21;55.65;100806.91;450596;114;921496;-65
2021/07/13 02:13:10;;;;;;;;;;;;;;;22.22;55.59;100799.41;451140;115;921504;-64
2021/07/13 02:14:13;;;;;;;;;;;;;;;22.22;55.62;100799.41;450004;116;921727;-65
2021/07/13 02:15:17;;;;;;;;;;;;;;;22.23;55.58;100799.10;450405;115;921440;-65
2021/07/13 02:16:20;;;;;;;;;;;;;;;22.25;55.54;100804.38;448702;115;921516;-65
2021/07/13 02:17:25;;;;;;;;;;;;;;;22.25;55.51;100807.99;449843;115;921467;-65
2021/07/13 02:18:28;;;;;;;;;;;;;;;22.25;55.47;100805.22;448487;115;921403;-66
2021/07/13 02:19:31;;;;;;;;;;;;;;;22.24;55.50;100797.98;451963;115;921440;-65
2021/07/13 02:20:34;;;;;;;;;;;;;;;22.24;55.58;100809.10;449004;115;921654;-65
2021/07/13 02:21:38;;;;;;;;;;;;;;;22.23;55.62;100806.60;450208;115;922605;-64
2021/07/13 02:22:41;;;;;;;;;;;;;;;22.21;55.65;100806.08;450243;115;922638;-64
2021/07/13 02:23:45;;;;;;;;;;;;;;;22.20;55.78;100801.63;449704;115;922669;-64
2021/07/13 02:24:48;;;;;;;;;;;;;;;22.19;55.84;100799.97;448549;115;925426;-66
2021/07/13 02:25:53;;;;;;;;;;;;;;;22.18;55.76;100803.86;448155;115;922672;-64
2021/07/13 02:26:58;;;;;;;;;;;;;;;22.18;55.74;100806.63;449221;115;923845;-65
2021/07/13 02:28:06;;;;;;;;;;;;;;;22.18;55.74;100809.41;450953;115;922765;-65
2021/07/13 02:29:20;;;;;;;;;;;;;;;22.18;55.71;100806.63;448213;115;922770;-65
2021/07/13 02:30:25;;;;;;;;;;;;;;;22.20;55.64;100809.97;438277;115;922725;-65
2021/07/13 02:31:30;;;;;;;;;;;;;;;22.21;55.49;100803.30;449153;115;922712;-65
2021/07/13 02:32:38;;;;;;;;;;;;;;;22.23;55.43;100804.66;450926;115;922673;-64
2021/07/13 02:33:59;;;;;;;;;;;;;;;22.24;55.41;100803.55;450010;116;922721;-64
2021/07/13 02:35:04;;;;;;;;;;;;;;;22.26;55.44;100798.55;448932;115;922676;-66
2021/07/13 02:36:09;;;;;;;;;;;;;;;22.28;55.41;100799.07;450139;115;922712;-64
2021/07/13 02:37:13;;;;;;;;;;;;;;;22.31;55.39;100801.29;449228;115;922539;-65
2021/07/13 02:38:18;;;;;;;;;;;;;;;22.32;55.37;100802.95;448727;115;922669;-64
2021/07/13 02:39:21;;;;;;;;;;;;;;;22.34;55.40;100797.09;449379;115;923187;-63
2021/07/13 02:40:25;;;;;;;;;;;;;;;22.34;55.42;100794.31;447239;116;922628;-63
2021/07/13 02:41:29;;;;;;;;;;;;;;;22.35;55.41;100794.03;447395;116;923162;-65
2021/07/13 02:42:32;;;;;;;;;;;;;;;22.36;55.46;100792.92;445892;116;922719;-65
2021/07/13 02:43:36;;;;;;;;;;;;;;;22.36;55.46;100792.92;447215;116;922922;-65
2021/07/13 02:44:39;;;;;;;;;;;;;;;22.37;55.40;100793.75;437506;119;921444;-64
2021/07/13 02:45:44;;;;;;;;;;;;;;;22.38;55.41;100792.64;450300;115;921983;-64
2021/07/13 02:46:47;;;;;;;;;;;;;;;22.38;55.34;100793.44;435071;119;921506;-65
2021/07/13 02:47:51;;;;;;;;;;;;;;;22.37;55.38;100791.81;431042;120;922611;-62
2021/07/13 02:48:55;;;;;;;;;;;;;;;22.38;55.38;100798.20;450201;115;922657;-62
2021/07/13 02:50:00;;;;;;;;;;;;;;;22.38;55.38;100798.20;449142;115;922742;-63
2021/07/13 02:51:04;;;;;;;;;;;;;;;22.38;55.39;100796.22;448463;115;922740;-63
2021/07/13 02:52:09;;;;;;;;;;;;;;;22.39;55.46;100799.83;447909;115;922589;-66
2021/07/13 02:53:12;;;;;;;;;;;;;;;22.40;55.55;100796.77;449157;115;922552;-64
2021/07/13 02:54:17;;;;;;;;;;;;;;;22.41;55.58;100797.61;447736;116;922581;-64
2021/07/13 02:55:22;;;;;;;;;;;;;;;22.42;55.66;100793.72;448947;116;922691;-62
2021/07/13 02:56:26;;;;;;;;;;;;;;;22.43;55.58;100798.16;450611;114;922700;-63
2021/07/13 02:57:30;;;;;;;;;;;;;;;22.44;55.46;100800.63;449548;115;921603;-65
2021/07/13 02:58:35;;;;;;;;;;;;;;;22.44;55.44;100799.80;451122;115;921595;-65
2021/07/13 02:59:39;;;;;;;;;;;;;;;22.44;55.42;100797.84;449955;114;921426;-65
2021/07/13 03:00:43;;;;;;;;;;;;;;;22.44;55.49;100795.07;451158;115;921617;-65
2021/07/13 03:01:47;;;;;;;;;;;;;;;22.46;55.55;100792.02;450713;115;921504;-65
2021/07/13 03:02:52;;;;;;;;;;;;;;;22.47;55.58;100793.68;449860;115;921701;-65
2021/07/13 03:03:56;;;;;;;;;;;;;;;22.48;55.66;100792.56;450216;115;922388;-65
2021/07/13 03:04:59;;;;;;;;;;;;;;;22.48;55.71;100795.34;450396;115;921457;-65
2021/07/13 03:06:03;;;;;;;;;;;;;;;22.49;55.74;100794.23;450171;115;921545;-66
2021/07/13 03:07:08;;;;;;;;;;;;;;;22.50;55.79;100792.25;449585;115;921545;-66
2021/07/13 03:08:13;;;;;;;;;;;;;;;22.50;55.74;100783.92;449954;115;921454;-66
2021/07/13 03:09:16;;;;;;;;;;;;;;;22.50;55.71;100790.31;448564;115;921617;-65
2021/07/13 03:10:21;;;;;;;;;;;;;;;22.53;55.64;100791.70;449497;115;921489;-64
2021/07/13 03:11:25;;;;;;;;;;;;;;;22.53;55.55;100789.75;448136;115;921487;-65
2021/07/13 03:12:28;;;;;;;;;;;;;;;22.55;55.41;100795.03;449799;115;921678;-65
2021/07/13 03:13:32;;;;;;;;;;;;;;;22.54;55.39;100791.41;448417;117;921887;-65
2021/07/13 03:14:37;;;;;;;;;;;;;;;22.54;55.39;100794.19;448685;115;923182;-64
2021/07/13 03:15:42;;;;;;;;;;;;;;;22.55;55.41;100798.61;451108;115;922707;-63
2021/07/13 03:16:47;;;;;;;;;;;;;;;22.56;55.43;100799.44;449040;115;922569;-65
2021/07/13 03:17:55;;;;;;;;;;;;;;;22.56;55.47;100805.00;448073;115;922701;-65
2021/07/13 03:18:59;;;;;;;;;;;;;;;22.56;55.45;100797.50;450898;115;922654;-65
2021/07/13 03:20:03;;;;;;;;;;;;;;;22.57;55.38;100812.22;451080;115;922551;-64
2021/07/13 03:21:07;;;;;;;;;;;;;;;22.57;55.34;100804.72;450844;115;922752;-64
2021/07/13 03:22:15;;;;;;;;;;;;;;;22.59;55.28;100810.00;449500;115;922691;-64
2021/07/13 03:23:19;;;;;;;;;;;;;;;22.60;55.22;100803.33;449995;115;923119;-64
2021/07/13 03:24:24;;;;;;;;;;;;;;;22.61;55.16;100802.18;450469;115;923611;-65
2021/07/13 03:25:29;;;;;;;;;;;;;;;22.63;55.12;100803.56;449436;115;922656;-65
2021/07/13 03:26:40;;;;;;;;;;;;;;;22.64;55.15;100801.62;447301;117;922752;-65
2021/07/13 03:27:44;;;;;;;;;;;;;;;22.66;55.13;100802.17;450923;115;921607;-62
2021/07/13 03:28:48;;;;;;;;;;;;;;;22.67;55.14;100796.30;448825;115;922852;-64
2021/07/13 03:29:52;;;;;;;;;;;;;;;22.69;55.17;100798.80;450128;115;922661;-66
2021/07/13 03:30:56;;;;;;;;;;;;;;;22.71;55.10;100794.66;448514;115;922802;-63
2021/07/13 03:32:00;;;;;;;;;;;;;;;22.73;55.08;100799.91;449257;115;922749;-64
2021/07/13 03:33:05;;;;;;;;;;;;;;;22.75;54.94;100795.72;449197;115;923063;-63
2021/07/13 03:34:08;;;;;;;;;;;;;;;22.76;54.80;100799.34;444652;117;922591;-66
2021/07/13 03:35:12;;;;;;;;;;;;;;;22.77;54.64;100787.91;435504;119;923278;-64
2021/07/13 03:36:17;;;;;;;;;;;;;;;22.79;54.60;100791.23;447661;115;923094;-62
2021/07/13 03:37:21;;;;;;;;;;;;;;;22.81;54.63;100793.73;446794;115;922673;-64
2021/07/13 03:38:26;;;;;;;;;;;;;;;22.83;54.69;100791.47;448238;115;922715;-64
2021/07/13 03:39:29;;;;;;;;;;;;;;;22.84;54.64;100795.92;446738;115;922609;-64
2021/07/13 03:40:33;;;;;;;;;;;;;;;22.84;54.59;100796.75;449413;115;922687;-65
2021/07/13 03:41:37;;;;;;;;;;;;;;;22.87;54.59;100795.35;449032;115;922639;-65
2021/07/13 03:42:42;;;;;;;;;;;;;;;22.88;54.59;100796.19;449432;115;922691;-63
2021/07/13 03:43:46;;;;;;;;;;;;;;;22.88;54.55;100803.37;448941;115;922652;-62
2021/07/13 03:44:50;;;;;;;;;;;;;;;22.91;54.56;100799.20;452880;115;923077;-64
2021/07/13 03:45:55;;;;;;;;;;;;;;;22.93;54.53;100810.04;451950;114;923314;-64
2021/07/13 03:46:59;;;;;;;;;;;;;;;22.93;54.48;100808.09;449934;116;922572;-70
2021/07/13 03:48:02;;;;;;;;;;;;;;;22.95;54.52;100807.78;447372;117;922651;-70
2021/07/13 03:49:06;;;;;;;;;;;;;;;22.97;54.53;100808.33;450889;115;923732;-69
2021/07/13 03:50:12;;;;;;;;;;;;;;;22.98;54.53;100801.66;450265;115;921498;-68
2021/07/13 03:51:23;;;;;;;;;;;;;;;23.00;54.54;100807.73;449647;115;921785;-70
2021/07/13 03:52:26;;;;;;;;;;;;;;;23.01;54.53;100803.84;448832;114;921460;-69
2021/07/13 03:53:30;;;;;;;;;;;;;;;23.02;54.46;100803.55;451967;114;921684;-68
2021/07/13 03:54:33;;;;;;;;;;;;;;;23.04;54.39;100803.27;450698;114;921607;-68
2021/07/13 03:55:37;;;;;;;;;;;;;;;23.04;54.26;100797.70;453434;113;921464;-69
2021/07/13 03:56:40;;;;;;;;;;;;;;;23.07;54.14;100799.89;448879;114;921490;-67
2021/07/13 03:57:44;;;;;;;;;;;;;;;23.08;54.10;100802.38;455304;113;921464;-69
2021/07/13 03:58:48;;;;;;;;;;;;;;;23.10;54.09;100805.69;456503;113;921513;-70
2021/07/13 03:59:52;;;;;;;;;;;;;;;23.12;54.07;100808.19;451965;114;921463;-69
2021/07/13 04:00:55;;;;;;;;;;;;;;;23.13;54.08;100804.28;450475;114;921418;-68
2021/07/13 04:01:58;;;;;;;;;;;;;;;23.15;54.13;100802.05;451091;115;921942;-70
2021/07/13 04:03:02;;;;;;;;;;;;;;;23.15;54.08;100802.88;453635;116;921414;-68
2021/07/13 04:04:06;;;;;;;;;;;;;;;23.18;54.11;100798.67;452313;115;921601;-69
2021/07/13 04:05:10;;;;;;;;;;;;;;;23.20;54.24;100808.39;457194;113;921536;-67
2021/07/13 04:06:14;;;;;;;;;;;;;;;23.22;54.29;100806.13;455541;113;921383;-68
2021/07/13 04:07:18;;;;;;;;;;;;;;;23.24;54.24;100803.89;448470;115;921518;-69
2021/07/13 04:08:21;;;;;;;;;;;;;;;23.27;54.20;100808.02;449026;114;921534;-69
2021/07/13 04:09:25;;;;;;;;;;;;;;;23.28;54.22;100807.74;447558;115;922718;-69
2021/07/13 04:10:29;;;;;;;;;;;;;;;23.31;54.29;100802.72;447444;115;922623;-70
2021/07/13 04:11:33;;;;;;;;;;;;;;;23.33;54.30;100803.23;446873;115;922681;-68
2021/07/13 04:12:36;;;;;;;;;;;;;;;23.34;54.20;100810.47;439271;118;923413;-69
2021/07/13 04:13:40;;;;;;;;;;;;;;;23.35;54.10;100801.84;448069;114;922698;-70
2021/07/13 04:14:44;;;;;;;;;;;;;;;23.36;54.05;100806.28;450047;114;922602;-70
2021/07/13 04:15:48;;;;;;;;;;;;;;;23.39;53.97;100802.06;449552;116;922622;-69
2021/07/13 04:16:52;;;;;;;;;;;;;;;23.41;53.99;100806.23;448802;116;922648;-68
2021/07/13 04:17:56;;;;;;;;;;;;;;;23.41;53.96;100800.66;447721;114;923064;-68
2021/07/13 04:19:00;;;;;;;;;;;;;;;23.43;53.93;100806.74;454232;113;923184;-68
2021/07/13 04:20:05;;;;;;;;;;;;;;;23.45;53.94;100800.89;448003;114;923774;-69
2021/07/13 04:21:09;;;;;;;;;;;;;;;23.46;53.93;100803.42;448795;115;922787;-69
2021/07/13 04:22:33;;;;;;;;;;;;;;;23.48;53.93;100801.18;450106;114;923031;-69
2021/07/13 04:23:38;;;;;;;;;;;;;;;23.50;53.72;100807.27;450477;114;922854;-69
2021/07/13 04:24:42;;;;;;;;;;;;;;;23.51;53.41;100806.14;454845;113;921569;-70
2021/07/13 04:25:46;;;;;;;;;;;;;;;23.53;53.33;100809.47;450782;114;921571;-69
2021/07/13 04:26:49;;;;;;;;;;;;;;;23.55;53.26;100809.98;440057;117;922700;-69
2021/07/13 04:27:53;;;;;;;;;;;;;;;23.58;53.12;100816.93;450650;114;923145;-69
2021/07/13 04:28:57;;;;;;;;;;;;;;;23.59;53.08;100816.64;459853;112;921921;-67
2021/07/13 04:30:01;;;;;;;;;;;;;;;23.61;53.03;100811.59;450971;115;923954;-67
2021/07/13 04:31:06;;;;;;;;;;;;;;;23.63;52.81;100817.70;459430;113;922774;-70
2021/07/13 04:32:10;;;;;;;;;;;;;;;23.65;52.56;100815.43;453155;114;922741;-68
2021/07/13 04:33:14;;;;;;;;;;;;;;;23.67;52.22;100815.14;458893;113;922532;-68
2021/07/13 04:34:17;;;;;;;;;;;;;;;23.69;51.52;100813.73;450798;114;922706;-70
2021/07/13 04:35:21;;;;;;;;;;;;;;;23.71;50.94;100818.98;458429;112;923393;-69
2021/07/13 04:36:25;;;;;;;;;;;;;;;23.73;50.74;100813.13;457844;112;923268;-68
2021/07/13 04:37:30;;;;;;;;;;;;;;;23.75;50.36;100811.72;457285;112;921465;-68
2021/07/13 04:38:33;;;;;;;;;;;;;;;23.76;49.91;100815.34;450541;115;922738;-69
2021/07/13 04:39:37;;;;;;;;;;;;;;;23.78;49.82;100811.11;449775;114;922758;-69
2021/07/13 04:40:40;;;;;;;;;;;;;;;23.79;49.71;100811.95;451018;114;921549;-68
2021/07/13 04:41:43;;;;;;;;;;;;;;;23.82;49.68;100811.38;451998;114;922765;-69
2021/07/13 04:42:47;;;;;;;;;;;;;;;23.83;49.56;100813.00;453245;114;921475;-68
2021/07/13 04:43:51;;;;;;;;;;;;;;;23.86;49.05;100818.00;458824;112;921319;-68
2021/07/13 04:44:55;;;;;;;;;;;;;;;23.88;48.58;100804.58;459286;113;922006;-70
2021/07/13 04:45:58;;;;;;;;;;;;;;;23.90;48.38;100814.31;450717;115;921590;-68
2021/07/13 04:47:02;;;;;;;;;;;;;;;23.92;48.19;100816.81;457360;113;922672;-67
2021/07/13 04:48:06;;;;;;;;;;;;;;;23.94;48.24;100820.94;457985;112;922619;-68
2021/07/13 04:49:09;;;;;;;;;;;;;;;23.96;48.25;100815.08;449283;116;924511;-68
2021/07/13 04:50:13;;;;;;;;;;;;;;;23.97;48.24;100811.17;455525;113;921595;-69
2021/07/13 04:51:16;;;;;;;;;;;;;;;24.00;48.37;100816.13;452177;114;921751;-67
2021/07/13 04:52:20;;;;;;;;;;;;;;;24.02;48.29;100814.72;455810;112;921579;-68
2021/07/13 04:53:23;;;;;;;;;;;;;;;24.04;47.85;100814.40;454955;114;921757;-68
2021/07/13 04:54:31;;;;;;;;;;;;;;;24.06;47.62;100806.58;451240;114;923746;-68
2021/07/13 04:55:32;;;;;;;;;;;;;;;24.07;47.60;100824.96;456710;114;922652;-67
2021/07/13 04:56:37;;;;;;;;;;;;;;;24.09;47.67;100817.14;450866;114;922402;-68
2021/07/13 04:57:41;;;;;;;;;;;;;;;24.10;47.49;100818.78;457160;113;921656;-69
2021/07/13 04:59:03;;;;;;;;;;;;;;;24.11;47.43;100812.91;449079;114;923103;-67
2021/07/13 05:00:07;;;;;;;;;;;;;;;24.14;47.41;100819.03;455910;113;923428;-66
2021/07/13 05:01:11;;;;;;;;;;;;;;;24.15;47.37;100815.92;449918;114;922694;-68
2021/07/13 05:02:14;;;;;;;;;;;;;;;24.16;47.30;100812.02;458232;112;921500;-67
2021/07/13 05:03:18;;;;;;;;;;;;;;;24.17;47.27;100813.67;451271;114;921628;-67
2021/07/13 05:04:21;;;;;;;;;;;;;;;24.19;47.42;100813.41;441676;117;921574;-69
2021/07/13 05:05:25;;;;;;;;;;;;;;;24.21;47.50;100817.55;453082;114;921405;-67
2021/07/13 05:06:28;;;;;;;;;;;;;;;24.23;47.17;100815.30;450573;114;921891;-68
2021/07/13 05:07:32;;;;;;;;;;;;;;;24.25;46.99;100818.62;447488;115;922182;-69
2021/07/13 05:08:35;;;;;;;;;;;;;;;24.26;46.92;100817.47;448809;116;921507;-68
2021/07/13 05:09:38;;;;;;;;;;;;;;;24.29;46.91;100822.46;452054;114;921563;-67
2021/07/13 05:10:44;;;;;;;;;;;;;;;24.30;47.00;100818.55;449359;116;921467;-67
2021/07/13 05:11:47;;;;;;;;;;;;;;;24.32;46.97;100819.06;451399;114;921588;-67
2021/07/13 05:12:52;;;;;;;;;;;;;;;24.34;47.00;100815.98;451586;114;922655;-67
2021/07/13 05:13:55;;;;;;;;;;;;;;;24.36;46.95;100814.56;446565;116;922727;-69
2021/07/13 05:14:59;;;;;;;;;;;;;;;24.38;47.01;100817.86;450133;114;922575;-68
2021/07/13 05:16:03;;;;;;;;;;;;;;;24.40;46.96;100821.19;451540;114;922931;-68
2021/07/13 05:17:07;;;;;;;;;;;;;;;24.41;46.96;100820.06;450602;114;923621;-68
2021/07/13 05:18:12;;;;;;;;;;;;;;;24.44;46.87;100821.41;449575;116;922724;-70
2021/07/13 05:19:17;;;;;;;;;;;;;;;24.45;46.83;100818.32;453307;114;922604;-69
2021/07/13 05:20:21;;;;;;;;;;;;;;;24.46;46.75;100819.98;453389;114;922650;-67
2021/07/13 05:21:24;;;;;;;;;;;;;;;24.48;46.75;100830.81;449286;114;923005;-67
2021/07/13 05:22:28;;;;;;;;;;;;;;;24.49;46.74;100824.94;448952;114;922695;-68
2021/07/13 05:23:33;;;;;;;;;;;;;;;24.51;46.69;100830.23;449236;114;922672;-69
2021/07/13 05:24:37;;;;;;;;;;;;;;;24.53;46.67;100825.98;450119;115;922646;-68
2021/07/13 05:25:40;;;;;;;;;;;;;;;24.56;46.65;100821.78;457802;113;922768;-68
2021/07/13 05:26:44;;;;;;;;;;;;;;;24.58;46.56;100824.28;455341;113;923377;-70
2021/07/13 05:27:47;;;;;;;;;;;;;;;24.60;46.68;100824.78;455636;112;922673;-69
2021/07/13 05:28:51;;;;;;;;;;;;;;;24.61;46.78;100823.66;456411;114;922609;-67